Time;durP1;ratioP1;P1;durP2;ratioP2;P2;SDS_P1;SDS_P2;PMS_P1;PMS_P2;Temp;Humidity;BMP_temperature;BMP_pressure;BME280_temperature;BME280_humidity;BME280_pressure;Samples;Min_cycle;Max_cycle;Signal;HPM_P1;HPM_P2
2021/05/12 00:01:50;;;;;;;26.20;23.40;;;;;;;17.60;64.78;99597.25;5070136;28;21033;-70
2021/05/12 00:04:17;;;;;;;27.53;24.30;;;;;;;17.52;65.07;99610.94;5071570;28;20460;-69
2021/05/12 00:06:43;;;;;;;30.40;24.20;;;;;;;17.34;65.88;99606.06;5073359;28;20504;-69
2021/05/12 00:09:09;;;;;;;31.13;25.77;;;;;;;17.30;65.99;99600.22;5072321;28;20441;-69
2021/05/12 00:11:35;;;;;;;29.83;26.47;;;;;;;17.40;65.66;99601.75;5068844;28;20500;-69
2021/05/12 00:14:01;;;;;;;34.13;27.40;;;;;;;17.18;66.31;99606.41;5071386;28;20469;-68
2021/05/12 00:16:28;;;;;;;29.73;24.90;;;;;;;17.39;65.47;99613.56;5069833;28;20480;-69
2021/05/12 00:18:55;;;;;;;29.67;25.80;;;;;;;17.16;66.28;99603.06;5063676;28;20455;-69
2021/05/12 00:21:27;;;;;;;27.90;24.83;;;;;;;17.24;66.51;99601.03;5066428;28;20488;-70
2021/05/12 00:23:59;;;;;;;27.70;24.70;;;;;;;17.36;65.95;99598.59;5064435;28;20456;-68
2021/05/12 00:26:26;;;;;;;30.37;26.63;;;;;;;17.27;66.04;99602.50;5069699;28;20622;-68
2021/05/12 00:28:52;;;;;;;28.23;24.50;;;;;;;17.24;66.22;99617.25;5071342;28;20441;-69
2021/05/12 00:31:18;;;;;;;29.33;26.20;;;;;;;17.08;67.17;99617.56;5069999;28;20530;-69
2021/05/12 00:33:45;;;;;;;30.27;25.57;;;;;;;17.21;66.51;99620.34;5063549;28;20472;-68
2021/05/12 00:36:12;;;;;;;32.10;27.90;;;;;;;17.34;66.41;99611.47;5065781;28;20532;-68
2021/05/12 00:38:38;;;;;;;32.53;25.53;;;;;;;17.11;67.09;99609.06;5069576;28;20487;-68
2021/05/12 00:41:04;;;;;;;29.07;25.97;;;;;;;16.97;67.71;99612.72;5069617;28;20477;-67
2021/05/12 00:43:30;;;;;;;28.13;25.13;;;;;;;17.12;67.38;99608.88;5064105;28;20440;-68
2021/05/12 00:45:57;;;;;;;27.50;24.40;;;;;;;17.09;67.21;99609.25;5068878;28;20747;-68
2021/05/12 00:48:23;;;;;;;29.60;25.80;;;;;;;17.30;66.55;99610.19;5066032;28;20460;-68
2021/05/12 00:50:50;;;;;;;27.10;24.23;;;;;;;16.78;67.98;99601.53;5076284;28;20506;-69
2021/05/12 00:53:16;;;;;;;26.23;23.07;;;;;;;16.77;68.05;99610.69;5065060;28;20531;-70
2021/05/12 00:55:42;;;;;;;26.47;22.80;;;;;;;17.09;66.91;99608.44;5066404;28;20864;-68
2021/05/12 00:58:08;;;;;;;24.90;22.20;;;;;;;17.17;66.59;99615.53;5073488;28;20465;-68
2021/05/12 01:00:34;;;;;;;22.60;20.23;;;;;;;17.17;66.31;99618.22;5071892;28;21043;-68
2021/05/12 01:03:02;;;;;;;22.00;19.70;;;;;;;17.00;66.98;99615.03;5066890;28;20441;-69
2021/05/12 01:05:30;;;;;;;23.07;20.57;;;;;;;17.01;66.89;99613.97;5075999;28;20479;-68
2021/05/12 01:07:58;;;;;;;22.60;20.30;;;;;;;16.93;67.37;99621.22;5073678;28;20629;-68
2021/05/12 01:10:24;;;;;;;23.40;21.00;;;;;;;17.05;66.80;99620.69;5071398;28;20456;-68
2021/05/12 01:12:50;;;;;;;24.07;21.10;;;;;;;16.74;68.00;99617.31;5076660;28;20503;-70
2021/05/12 01:15:23;;;;;;;24.80;19.80;;;;;;;16.87;67.55;99623.84;5061718;28;20674;-69
2021/05/12 01:17:49;;;;;;;23.13;20.67;;;;;;;16.82;67.74;99628.97;5075620;28;20455;-69
2021/05/12 01:20:15;;;;;;;21.87;19.50;;;;;;;17.06;67.01;99617.75;5076015;28;20483;-69
2021/05/12 01:22:42;;;;;;;23.80;19.40;;;;;;;17.17;66.85;99618.22;5077085;28;20442;-69
2021/05/12 01:25:10;;;;;;;24.33;20.60;;;;;;;17.11;66.60;99622.56;5062174;28;20485;-69
2021/05/12 01:27:36;;;;;;;25.50;19.63;;;;;;;17.11;66.41;99619.88;5080183;28;20466;-69
2021/05/12 01:30:04;;;;;;;27.07;20.93;;;;;;;16.86;67.08;99625.72;5064595;28;20502;-70
2021/05/12 01:32:34;;;;;;;28.00;20.67;;;;;;;16.46;68.54;99636.19;5069897;28;20488;-69
2021/05/12 01:35:05;;;;;;;28.03;23.63;;;;;;;16.54;68.58;99636.06;5072841;28;20990;-70
2021/05/12 01:37:32;;;;;;;29.90;22.63;;;;;;;16.85;67.25;99637.56;5069492;28;20508;-70
2021/05/12 01:39:59;;;;;;;28.90;24.40;;;;;;;16.68;67.73;99639.69;5067160;28;20439;-70
2021/05/12 01:42:25;;;;;;;30.30;25.13;;;;;;;16.39;68.80;99635.28;5063977;28;20499;-69
2021/05/12 01:44:51;;;;;;;27.60;23.30;;;;;;;16.50;68.58;99637.44;5073135;28;20444;-69
2021/05/12 01:47:17;;;;;;;28.23;23.23;;;;;;;16.65;67.97;99639.25;5071908;28;20491;-68
2021/05/12 01:49:43;;;;;;;30.60;23.63;;;;;;;16.66;67.59;99640.91;5077868;28;20472;-69
2021/05/12 01:52:09;;;;;;;29.93;23.30;;;;;;;16.59;68.02;99640.84;5072028;28;20480;-69
2021/05/12 01:54:35;;;;;;;32.33;23.17;;;;;;;16.40;68.59;99639.66;5072927;28;20441;-70
2021/05/12 01:57:02;;;;;;;32.17;24.27;;;;;;;16.51;68.09;99641.84;5071902;28;21056;-69
2021/05/12 01:59:29;;;;;;;29.60;23.40;;;;;;;16.58;67.71;99644.59;5070991;28;20428;-69
2021/05/12 02:01:55;;;;;;;27.07;22.03;;;;;;;16.68;67.38;99638.84;5068967;28;20528;-69
2021/05/12 02:04:21;;;;;;;29.27;23.30;;;;;;;16.72;67.10;99637.44;5069347;28;20981;-68
2021/05/12 02:06:47;;;;;;;26.90;22.17;;;;;;;16.43;67.83;99636.56;5077141;28;20547;-69
2021/05/12 02:09:13;;;;;;;25.67;20.70;;;;;;;16.32;68.15;99646.00;5064702;28;20448;-70
2021/05/12 02:11:39;;;;;;;29.40;22.20;;;;;;;15.95;69.46;99637.16;5070808;28;20480;-68
2021/05/12 02:14:07;;;;;;;27.80;21.30;;;;;;;16.25;68.19;99638.88;5073637;28;20452;-68
2021/05/12 02:16:33;;;;;;;27.80;20.97;;;;;;;15.91;69.16;99638.53;5068497;28;20480;-68
2021/05/12 02:18:59;;;;;;;25.23;20.43;;;;;;;15.92;69.45;99639.34;5072422;28;20519;-69
2021/05/12 02:21:25;;;;;;;29.07;21.20;;;;;;;16.19;68.42;99649.41;5076535;28;20491;-68
2021/05/12 02:23:51;;;;;;;28.50;21.70;;;;;;;16.11;68.46;99654.09;5069013;28;20469;-69
2021/05/12 02:26:17;;;;;;;27.13;21.77;;;;;;;16.14;68.60;99654.56;5067778;28;20503;-69
2021/05/12 02:28:44;;;;;;;29.33;22.40;;;;;;;16.24;68.33;99651.53;5072333;28;20456;-69
2021/05/12 02:31:11;;;;;;;31.37;23.40;;;;;;;16.21;68.35;99648.38;5066435;28;20476;-68
2021/05/12 02:33:37;;;;;;;29.83;22.10;;;;;;;16.17;68.51;99656.03;5069354;28;20580;-69
2021/05/12 02:36:03;;;;;;;33.43;23.43;;;;;;;16.17;68.60;99650.63;5078399;28;21035;-69
2021/05/12 02:38:30;;;;;;;27.67;22.63;;;;;;;16.11;68.75;99649.53;5078473;28;20539;-70
2021/05/12 02:40:56;;;;;;;28.80;21.93;;;;;;;16.25;68.08;99647.81;5075435;28;20483;-69
2021/05/12 02:43:22;;;;;;;28.03;23.30;;;;;;;16.46;67.36;99646.97;5069164;28;20436;-68
2021/05/12 02:45:49;;;;;;;28.77;22.80;;;;;;;16.46;67.62;99643.44;5076539;28;20506;-70
2021/05/12 02:48:16;;;;;;;29.67;21.80;;;;;;;16.11;68.14;99644.16;5074795;28;20448;-70
2021/05/12 02:50:43;;;;;;;28.97;23.10;;;;;;;16.25;67.61;99646.97;5077079;28;20537;-69
2021/05/12 02:53:10;;;;;;;32.63;23.07;;;;;;;16.36;67.35;99646.47;5071950;28;20547;-69
2021/05/12 02:55:37;;;;;;;30.93;23.80;;;;;;;16.43;67.40;99655.44;5070966;28;20564;-69
2021/05/12 02:58:05;;;;;;;27.20;22.63;;;;;;;16.38;67.22;99652.50;5076264;28;20472;-70
2021/05/12 03:00:32;;;;;;;31.37;23.50;;;;;;;16.44;67.33;99643.63;5075212;28;20996;-69
2021/05/12 03:02:58;;;;;;;30.57;24.27;;;;;;;16.40;67.27;99646.91;5070371;28;20520;-69
2021/05/12 03:05:25;;;;;;;37.20;26.13;;;;;;;16.30;67.65;99641.81;5066330;28;20614;-68
2021/05/12 03:07:51;;;;;;;28.03;23.57;;;;;;;16.38;67.20;99647.09;5071241;28;20452;-68
2021/05/12 03:10:19;;;;;;;30.57;25.33;;;;;;;16.33;67.48;99650.38;5072736;28;20468;-68
2021/05/12 03:12:46;;;;;;;29.30;23.33;;;;;;;16.00;68.57;99653.59;5069449;28;20519;-68
2021/05/12 03:15:14;;;;;;;29.17;22.97;;;;;;;16.27;67.72;99644.94;5067751;28;20503;-69
2021/05/12 03:17:40;;;;;;;32.93;26.17;;;;;;;16.24;67.76;99653.41;5075910;28;20452;-69
2021/05/12 03:20:08;;;;;;;31.20;24.77;;;;;;;16.26;67.77;99651.34;5068421;28;20543;-69
2021/05/12 03:22:36;;;;;;;33.03;25.30;;;;;;;16.11;67.78;99660.34;5069968;28;20507;-68
2021/05/12 03:25:02;;;;;;;31.03;24.97;;;;;;;16.20;67.84;99661.03;5080513;28;20470;-68
2021/05/12 03:27:28;;;;;;;31.83;25.57;;;;;;;16.13;67.89;99657.44;5077539;28;20798;-68
2021/05/12 03:29:54;;;;;;;32.10;25.83;;;;;;;15.96;68.55;99656.84;5083250;28;20440;-68
2021/05/12 03:32:20;;;;;;;33.40;25.70;;;;;;;16.06;68.38;99649.28;5076003;28;20580;-68
2021/05/12 03:34:46;;;;;;;34.60;26.80;;;;;;;15.91;68.34;99653.88;5064925;28;20449;-68
2021/05/12 03:37:12;;;;;;;32.10;25.50;;;;;;;15.64;69.09;99658.94;5063129;28;20472;-69
2021/05/12 03:39:39;;;;;;;33.30;25.37;;;;;;;15.85;68.65;99652.78;5072300;28;20472;-68
2021/05/12 03:42:06;;;;;;;31.53;26.73;;;;;;;15.98;67.83;99654.78;5071247;28;20555;-69
2021/05/12 03:44:32;;;;;;;31.23;25.30;;;;;;;16.00;67.77;99664.38;5072292;28;20509;-68
2021/05/12 03:46:58;;;;;;;33.83;25.60;;;;;;;15.86;68.50;99667.09;5070784;28;21008;-68
2021/05/12 03:49:25;;;;;;;29.90;26.07;;;;;;;15.88;67.94;99668.56;5065031;28;20441;-69
2021/05/12 03:51:51;;;;;;;33.60;26.43;;;;;;;15.63;68.90;99668.03;5064187;28;20512;-68
2021/05/12 03:54:17;;;;;;;30.27;24.43;;;;;;;16.14;67.44;99669.88;5070688;28;20497;-69
2021/05/12 03:56:44;;;;;;;36.67;26.40;;;;;;;15.71;68.19;99680.53;5070978;28;20477;-68
2021/05/12 03:59:10;;;;;;;37.37;25.50;;;;;;;15.99;67.82;99683.44;5071302;28;20437;-68
2021/05/12 04:01:36;;;;;;;30.80;24.70;;;;;;;15.62;68.91;99696.84;5069060;28;20550;-67
2021/05/12 04:04:06;;;;;;;30.70;24.97;;;;;;;15.80;68.30;99690.25;5066698;28;20441;-69
2021/05/12 04:06:32;;;;;;;28.37;25.00;;;;;;;15.86;67.89;99691.34;5066246;28;20523;-68
2021/05/12 04:08:58;;;;;;;30.30;25.10;;;;;;;16.06;67.22;99691.56;5071820;28;20515;-69
2021/05/12 04:11:24;;;;;;;30.03;22.97;;;;;;;16.16;66.68;99690.25;5070082;28;20568;-68
2021/05/12 04:13:51;;;;;;;26.77;22.20;;;;;;;15.99;66.82;99681.56;5070937;28;20488;-67
2021/05/12 04:16:17;;;;;;;29.03;24.17;;;;;;;16.08;66.78;99690.38;5065475;28;20507;-69
2021/05/12 04:18:43;;;;;;;27.50;22.70;;;;;;;16.24;66.18;99691.16;5081049;28;20463;-69
2021/05/12 04:21:09;;;;;;;28.67;23.90;;;;;;;15.65;67.75;99700.19;5069584;28;20508;-68
2021/05/12 04:23:36;;;;;;;25.87;21.93;;;;;;;16.06;66.19;99703.22;5077528;28;20464;-69
2021/05/12 04:26:02;;;;;;;27.47;22.10;;;;;;;15.77;66.89;99706.78;5072403;28;20893;-68
2021/05/12 04:28:28;;;;;;;26.70;22.73;;;;;;;15.84;66.94;99701.50;5073046;28;20555;-69
2021/05/12 04:30:55;;;;;;;23.83;21.13;;;;;;;16.03;66.67;99705.44;5076305;28;20535;-68
2021/05/12 04:33:21;;;;;;;25.17;21.57;;;;;;;16.19;66.17;99707.91;5086690;28;20499;-69
2021/05/12 04:35:47;;;;;;;28.00;22.60;;;;;;;16.08;66.71;99694.94;5074455;28;21400;-68
2021/05/12 04:38:13;;;;;;;24.03;21.47;;;;;;;15.89;66.50;99705.28;5072991;28;20456;-69
2021/05/12 04:40:39;;;;;;;27.07;22.63;;;;;;;15.84;67.18;99704.19;5076781;28;20464;-68
2021/05/12 04:43:05;;;;;;;23.80;21.23;;;;;;;16.09;66.18;99697.44;5074999;28;20483;-68
2021/05/12 04:45:31;;;;;;;25.10;20.90;;;;;;;15.92;66.53;99704.06;5062784;28;20483;-69
2021/05/12 04:47:58;;;;;;;23.70;21.20;;;;;;;15.95;66.10;99692.91;5077370;28;20480;-68
2021/05/12 04:50:27;;;;;;;24.13;21.50;;;;;;;16.12;65.38;99701.59;5079868;28;20824;-69
2021/05/12 04:52:53;;;;;;;23.27;20.40;;;;;;;15.79;66.44;99694.78;5076746;28;20576;-69
2021/05/12 04:55:20;;;;;;;23.30;20.80;;;;;;;15.51;66.82;99694.59;5076334;28;20559;-68
2021/05/12 04:57:46;;;;;;;24.43;21.60;;;;;;;16.14;65.31;99696.84;5080508;28;20516;-69
2021/05/12 05:00:14;;;;;;;24.13;21.30;;;;;;;16.15;64.98;99702.06;5080649;28;20528;-67
2021/05/12 05:02:41;;;;;;;23.93;21.33;;;;;;;15.98;65.76;99697.91;5078923;28;20462;-69
2021/05/12 05:05:09;;;;;;;22.23;19.83;;;;;;;16.15;65.54;99707.47;5078644;28;20456;-68
2021/05/12 05:07:36;;;;;;;24.00;21.00;;;;;;;16.13;65.79;99719.47;5078519;28;20456;-68
2021/05/12 05:10:02;;;;;;;29.73;23.03;;;;;;;16.17;65.55;99708.09;5060055;28;20441;-68
2021/05/12 05:12:29;;;;;;;25.17;22.47;;;;;;;16.50;64.03;99712.19;5068826;28;20554;-68
2021/05/12 05:14:56;;;;;;;24.80;21.50;;;;;;;16.05;65.17;99716.88;5072444;28;20793;-67
2021/05/12 05:17:22;;;;;;;25.73;21.03;;;;;;;16.34;64.39;99714.09;5078577;28;20587;-68
2021/05/12 05:19:48;;;;;;;22.90;20.03;;;;;;;16.18;64.79;99722.44;5061953;28;20471;-69
2021/05/12 05:22:16;;;;;;;21.73;19.43;;;;;;;16.49;64.07;99726.69;5070218;28;20476;-70
2021/05/12 05:24:42;;;;;;;24.03;20.43;;;;;;;16.71;63.63;99724.84;5070930;28;20539;-68
2021/05/12 05:27:09;;;;;;;22.70;20.30;;;;;;;16.40;63.83;99735.94;5079113;28;20605;-66
2021/05/12 05:29:35;;;;;;;23.27;20.77;;;;;;;16.02;65.12;99738.81;5073768;28;20591;-68
2021/05/12 05:32:01;;;;;;;25.37;20.47;;;;;;;16.54;63.08;99741.28;5075626;28;20503;-68
2021/05/12 05:34:27;;;;;;;23.30;20.73;;;;;;;16.18;64.31;99744.84;5072416;28;20472;-68
2021/05/12 05:36:53;;;;;;;21.90;19.50;;;;;;;16.38;63.97;99744.22;5077409;28;20499;-68
2021/05/12 05:39:20;;;;;;;25.20;19.80;;;;;;;16.33;63.59;99741.25;5067014;28;20480;-71
2021/05/12 05:41:46;;;;;;;22.67;20.17;;;;;;;16.57;63.33;99734.66;5068756;28;20508;-69
2021/05/12 05:44:12;;;;;;;23.30;20.80;;;;;;;16.77;62.87;99740.28;5068971;28;20985;-69
2021/05/12 05:46:38;;;;;;;22.23;19.80;;;;;;;16.22;64.02;99737.19;5070547;28;20506;-69
2021/05/12 05:49:06;;;;;;;23.57;20.00;;;;;;;16.29;64.01;99748.91;5069954;28;20488;-69
2021/05/12 05:51:32;;;;;;;23.93;19.83;;;;;;;16.38;64.14;99749.63;5074251;28;20484;-69
2021/05/12 05:53:58;;;;;;;26.73;19.50;;;;;;;16.62;63.46;99756.50;5062222;28;20496;-69
2021/05/12 05:56:25;;;;;;;22.97;20.57;;;;;;;16.91;62.14;99754.75;5060144;28;20545;-69
2021/05/12 05:58:51;;;;;;;21.87;19.53;;;;;;;16.60;63.09;99755.88;5060425;28;21010;-69
2021/05/12 06:01:17;;;;;;;22.83;20.43;;;;;;;16.63;63.24;99755.50;5059041;28;20480;-69
2021/05/12 06:03:43;;;;;;;23.60;20.60;;;;;;;16.68;63.08;99763.00;5060702;28;20453;-69
2021/05/12 06:06:10;;;;;;;22.53;20.10;;;;;;;16.96;62.51;99755.00;5067814;28;20559;-67
2021/05/12 06:08:36;;;;;;;22.70;20.00;;;;;;;17.33;61.29;99763.81;5075997;28;20464;-68
2021/05/12 06:11:02;;;;;;;20.93;18.70;;;;;;;16.74;62.50;99740.66;5078454;28;20559;-70
2021/05/12 06:13:29;;;;;;;22.97;19.80;;;;;;;16.62;62.81;99756.50;5063223;28;21008;-69
2021/05/12 06:15:55;;;;;;;24.53;20.70;;;;;;;16.83;62.30;99752.16;5078229;28;20486;-69
2021/05/12 06:18:22;;;;;;;21.83;18.73;;;;;;;16.78;61.91;99752.72;5079668;28;20482;-69
2021/05/12 06:20:48;;;;;;;20.53;18.03;;;;;;;17.08;61.54;99764.25;5069673;28;20480;-70
2021/05/12 06:23:14;;;;;;;20.87;18.27;;;;;;;16.52;62.76;99762.22;5078058;28;20463;-71
2021/05/12 06:25:40;;;;;;;21.10;19.00;;;;;;;17.04;61.76;99770.22;5094225;28;20471;-70
2021/05/12 06:28:06;;;;;;;22.33;19.93;;;;;;;17.20;61.89;99759.13;5079835;28;20511;-73
2021/05/12 06:30:33;;;;;;;21.93;19.43;;;;;;;17.17;61.56;99767.66;5077734;28;20516;-71
2021/05/12 06:32:59;;;;;;;21.07;18.87;;;;;;;16.95;61.13;99774.94;5079859;28;20491;-71
2021/05/12 06:35:26;;;;;;;24.50;19.40;;;;;;;17.50;60.40;99773.28;5075487;28;20456;-71
2021/05/12 06:37:52;;;;;;;24.60;18.77;;;;;;;17.30;60.32;99775.00;5078451;28;20452;-72
2021/05/12 06:40:18;;;;;;;25.70;20.77;;;;;;;17.23;60.25;99774.13;5079105;28;20452;-72
2021/05/12 06:42:44;;;;;;;20.53;18.40;;;;;;;17.17;59.66;99777.59;5079968;28;21137;-69
2021/05/12 06:45:12;;;;;;;22.20;19.80;;;;;;;16.93;59.71;99785.91;5078122;28;20506;-73
2021/05/12 06:47:39;;;;;;;24.90;18.70;;;;;;;17.28;59.50;99783.31;5079170;28;20472;-68
2021/05/12 06:50:06;;;;;;;22.23;19.03;;;;;;;16.86;59.90;99795.00;5077879;28;20518;-71
2021/05/12 06:52:32;;;;;;;24.10;20.83;;;;;;;16.81;60.37;99794.72;5078289;28;21221;-72
2021/05/12 06:54:59;;;;;;;22.80;20.30;;;;;;;16.92;60.24;99799.59;5079315;28;20482;-72
2021/05/12 06:57:26;;;;;;;23.10;20.00;;;;;;;17.10;59.79;99793.78;5079225;28;20476;-71
2021/05/12 06:59:52;;;;;;;23.87;20.77;;;;;;;17.03;59.52;99799.09;5084400;28;20452;-72
2021/05/12 07:02:18;;;;;;;21.83;17.70;;;;;;;16.83;58.72;99798.03;5092418;28;20491;-69
2021/05/12 07:04:46;;;;;;;18.77;16.77;;;;;;;16.44;59.53;99807.38;5082581;28;20447;-68
2021/05/12 07:07:12;;;;;;;18.20;16.30;;;;;;;16.76;58.31;99806.91;5080375;28;20486;-67
2021/05/12 07:09:38;;;;;;;18.10;16.20;;;;;;;16.95;56.76;99804.63;5082864;28;20444;-68
2021/05/12 07:12:05;;;;;;;16.33;14.50;;;;;;;17.90;54.84;99804.31;5082545;28;20471;-69
2021/05/12 07:14:31;;;;;;;16.30;14.00;;;;;;;18.16;53.20;99809.06;5082815;28;20439;-69
2021/05/12 07:16:57;;;;;;;16.43;13.20;;;;;;;17.78;53.57;99812.16;5081879;28;20499;-68
2021/05/12 07:19:24;;;;;;;16.63;13.17;;;;;;;18.34;51.83;99809.34;5082840;28;20459;-71
2021/05/12 07:21:51;;;;;;;15.43;13.33;;;;;;;18.14;52.06;99811.97;5069806;28;20475;-70
2021/05/12 07:24:17;;;;;;;15.40;13.80;;;;;;;18.41;51.73;99812.06;5082900;28;20447;-73
2021/05/12 07:26:43;;;;;;;15.40;13.70;;;;;;;19.02;49.97;99813.91;5082218;28;20498;-71
2021/05/12 07:29:09;;;;;;;19.23;14.17;;;;;;;18.60;50.59;99810.47;5073192;28;20864;-71
2021/05/12 07:31:36;;;;;;;19.17;13.87;;;;;;;19.67;48.82;99806.00;5081589;28;20490;-69
2021/05/12 07:34:05;;;;;;;17.50;12.50;;;;;;;19.85;47.74;99801.81;5082861;28;20483;-68
2021/05/12 07:36:31;;;;;;;13.47;12.03;;;;;;;19.42;49.52;99805.78;5077381;28;20475;-72
2021/05/12 07:38:58;;;;;;;15.17;12.10;;;;;;;20.15;46.99;99812.97;5083034;28;20487;-65
2021/05/12 07:41:24;;;;;;;14.83;13.23;;;;;;;20.40;46.53;99807.69;5081724;28;20472;-66
2021/05/12 07:43:51;;;;;;;14.13;11.77;;;;;;;19.81;45.71;99805.97;5081872;28;20443;-66
2021/05/12 07:46:18;;;;;;;13.37;11.97;;;;;;;20.75;43.76;99817.34;5081473;28;20472;-66
2021/05/12 07:48:45;;;;;;;14.43;11.03;;;;;;;20.84;43.88;99818.75;5082608;28;20477;-67
2021/05/12 07:51:11;;;;;;;13.30;10.90;;;;;;;20.71;43.81;99821.53;5069210;28;21106;-67
2021/05/12 07:53:37;;;;;;;10.67;9.57;;;;;;;21.18;43.45;99813.91;5081362;28;21040;-68
2021/05/12 07:56:05;;;;;;;13.37;11.47;;;;;;;20.93;42.87;99825.56;5081428;28;20468;-71
2021/05/12 07:58:31;;;;;;;11.80;10.30;;;;;;;21.45;42.35;99818.06;5082090;28;20950;-68
2021/05/12 08:01:03;;;;;;;12.23;9.53;;;;;;;21.91;41.46;99826.06;5080772;28;20529;-67
2021/05/12 08:03:29;;;;;;;10.60;9.53;;;;;;;22.44;39.26;99817.28;5064211;28;20501;-68
2021/05/12 08:05:55;;;;;;;11.97;8.77;;;;;;;23.27;37.89;99826.59;5080754;28;20475;-68
2021/05/12 08:08:22;;;;;;;10.10;8.83;;;;;;;23.20;38.38;99822.31;5080772;28;20458;-67
2021/05/12 08:10:48;;;;;;;12.70;9.57;;;;;;;22.72;38.64;99818.59;5080470;28;20479;-67
2021/05/12 08:13:15;;;;;;;12.07;9.97;;;;;;;22.27;39.62;99830.72;5081751;28;20975;-67
2021/05/12 08:15:41;;;;;;;10.90;9.80;;;;;;;22.23;40.38;99828.63;5081262;28;20460;-66
2021/05/12 08:18:08;;;;;;;10.67;9.57;;;;;;;22.24;41.08;99825.69;5082225;28;20459;-71
2021/05/12 08:20:35;;;;;;;10.03;8.60;;;;;;;22.26;39.98;99826.28;5079584;28;20470;-68
2021/05/12 08:23:01;;;;;;;9.60;8.40;;;;;;;22.47;39.15;99827.72;5081476;28;20424;-67
2021/05/12 08:25:27;;;;;;;11.50;10.30;;;;;;;21.28;42.04;99830.56;5081135;28;20480;-64
2021/05/12 08:27:55;;;;;;;11.13;9.43;;;;;;;21.56;41.18;99842.91;5082077;28;20566;-64
2021/05/12 08:30:24;;;;;;;9.53;7.50;;;;;;;21.99;41.01;99834.75;5080250;28;20503;-71
2021/05/12 08:32:51;;;;;;;14.27;8.43;;;;;;;22.07;39.93;99830.06;5081030;28;20483;-68
2021/05/12 08:35:17;;;;;;;9.97;7.60;;;;;;;22.78;37.80;99830.47;5076029;28;20468;-69
2021/05/12 08:37:44;;;;;;;9.60;7.50;;;;;;;21.65;41.21;99830.72;5061111;28;20482;-69
2021/05/12 08:40:10;;;;;;;9.50;6.87;;;;;;;21.35;41.04;99841.38;5061172;28;20474;-69
2021/05/12 08:42:39;;;;;;;10.60;7.67;;;;;;;22.60;38.60;99829.44;5062195;28;20951;-70
2021/05/12 08:45:06;;;;;;;7.67;6.40;;;;;;;22.15;38.67;99830.59;5064476;28;21005;-70
2021/05/12 08:47:33;;;;;;;7.20;6.33;;;;;;;22.94;36.26;99827.91;5081060;28;20462;-69
2021/05/12 08:50:00;;;;;;;7.00;5.17;;;;;;;24.21;34.19;99823.03;5081554;28;20491;-70
2021/05/12 08:52:27;;;;;;;8.90;5.60;;;;;;;23.22;35.83;99821.00;5079496;28;20507;-70
2021/05/12 08:54:54;;;;;;;8.37;5.33;;;;;;;24.64;32.74;99831.03;5081080;28;20440;-69
2021/05/12 08:57:20;;;;;;;9.87;5.60;;;;;;;25.56;31.00;99825.28;5080302;28;20483;-68
2021/05/12 08:59:46;;;;;;;7.03;6.00;;;;;;;25.27;31.54;99824.53;5081131;28;20425;-69
2021/05/12 09:02:12;;;;;;;7.23;5.50;;;;;;;24.65;32.58;99819.88;5080839;28;20483;-71
2021/05/12 09:04:39;;;;;;;6.00;5.50;;;;;;;23.97;33.88;99829.63;5080738;28;20562;-71
2021/05/12 09:07:06;;;;;;;7.20;4.87;;;;;;;23.24;35.26;99831.69;5079502;28;20483;-70
2021/05/12 09:09:32;;;;;;;9.27;4.90;;;;;;;23.34;34.58;99834.69;5080253;28;20447;-68
2021/05/12 09:11:58;;;;;;;10.00;4.63;;;;;;;24.05;34.68;99840.19;5080546;28;20508;-68
2021/05/12 09:14:26;;;;;;;6.33;5.03;;;;;;;24.02;32.76;99836.00;5079981;28;20479;-68
2021/05/12 09:16:52;;;;;;;7.70;4.73;;;;;;;23.14;34.74;99837.75;5080232;28;20476;-69
2021/05/12 09:19:23;;;;;;;7.53;5.00;;;;;;;24.21;33.12;99833.97;5080952;28;20953;-68
2021/05/12 09:21:51;;;;;;;8.13;5.20;;;;;;;23.99;33.57;99835.66;5077262;28;20553;-68
2021/05/12 09:24:22;;;;;;;9.93;5.23;;;;;;;23.81;34.46;99834.72;5080649;28;20859;-68
2021/05/12 09:26:49;;;;;;;9.50;5.10;;;;;;;23.14;34.60;99835.00;5079968;28;20883;-69
2021/05/12 09:29:26;;;;;;;7.10;5.20;;;;;;;22.18;37.27;99834.75;5076921;28;20444;-68
2021/05/12 09:32:02;;;;;;;6.93;5.43;;;;;;;22.87;36.77;99840.00;5075490;28;20485;-68
2021/05/12 09:34:28;;;;;;;8.13;6.10;;;;;;;21.77;38.14;99830.81;5079616;28;20476;-68
2021/05/12 09:36:55;;;;;;;10.40;5.10;;;;;;;22.94;37.30;99829.81;5060266;28;20477;-69
2021/05/12 09:39:21;;;;;;;9.00;5.30;;;;;;;23.54;36.52;99834.34;5060244;28;20473;-69
2021/05/12 09:41:47;;;;;;;6.60;4.73;;;;;;;22.73;36.58;99847.53;5060046;28;20480;-70
2021/05/12 09:44:13;;;;;;;9.03;5.10;;;;;;;22.26;36.40;99837.19;5060010;28;20472;-70
2021/05/12 09:46:40;;;;;;;6.90;5.20;;;;;;;22.68;37.09;99844.66;5062420;28;20468;-70
2021/05/12 09:49:15;;;;;;;6.60;4.27;;;;;;;23.00;35.74;99842.53;5080516;28;20454;-70
2021/05/12 09:51:43;;;;;;;7.70;4.00;;;;;;;22.26;36.60;99847.25;5061943;28;20506;-69
2021/05/12 09:54:13;;;;;;;6.33;4.67;;;;;;;21.89;37.00;99849.94;5060172;28;20484;-67
2021/05/12 09:56:44;;;;;;;5.93;3.90;;;;;;;21.95;36.92;99844.41;5059684;28;20563;-68
2021/05/12 09:59:14;;;;;;;6.43;3.90;;;;;;;21.53;37.20;99843.38;5063929;28;20886;-69
2021/05/12 10:01:45;;;;;;;6.23;3.87;;;;;;;22.07;37.24;99840.97;5096102;28;20524;-70
2021/05/12 10:04:32;;;;;;;6.67;4.23;;;;;;;21.87;36.49;99846.59;5097870;28;20842;-69
2021/05/12 10:06:59;;;;;;;9.67;4.73;;;;;;;21.93;37.17;99843.81;5060281;28;20488;-71
2021/05/12 10:09:28;;;;;;;5.80;4.33;;;;;;;22.29;37.40;99836.75;5073769;28;20480;-70
2021/05/12 10:12:11;;;;;;;4.10;3.70;;;;;;;22.67;36.19;99843.81;5078306;28;20537;-71
2021/05/12 10:14:40;;;;;;;6.40;3.77;;;;;;;23.22;36.40;99840.09;5080137;28;20440;-69
2021/05/12 10:17:08;;;;;;;7.73;4.67;;;;;;;23.34;35.59;99836.59;5079403;28;20502;-69
2021/05/12 10:19:35;;;;;;;4.93;4.40;;;;;;;23.59;35.98;99842.66;5079775;28;20841;-72
2021/05/12 10:22:02;;;;;;;5.63;4.87;;;;;;;23.73;34.76;99846.00;5080463;28;20488;-70
2021/05/12 10:24:30;;;;;;;6.90;4.43;;;;;;;23.21;35.19;99843.06;5080027;28;20440;-70
2021/05/12 10:26:59;;;;;;;6.93;4.30;;;;;;;23.09;34.81;99840.34;5078124;28;20480;-69
2021/05/12 10:29:25;;;;;;;11.53;4.63;;;;;;;22.34;36.81;99842.34;5079019;28;20448;-68
2021/05/12 10:31:51;;;;;;;6.83;4.23;;;;;;;23.12;35.17;99839.84;5078721;28;20484;-68
2021/05/12 10:34:19;;;;;;;7.53;4.70;;;;;;;22.19;36.29;99839.97;5083257;28;20471;-69
2021/05/12 10:36:45;;;;;;;11.00;4.80;;;;;;;21.37;39.42;99842.00;5082934;28;20994;-67
2021/05/12 10:39:13;;;;;;;6.00;4.60;;;;;;;21.80;38.80;99844.78;5083748;28;20444;-68
2021/05/12 10:41:43;;;;;;;6.20;4.30;;;;;;;22.10;38.80;99843.22;5082244;28;20471;-66
2021/05/12 10:44:15;;;;;;;5.33;3.83;;;;;;;22.07;38.07;99844.50;5084265;28;20515;-70
2021/05/12 10:46:49;;;;;;;6.63;4.30;;;;;;;22.53;35.35;99835.00;5082469;28;20990;-70
2021/05/12 10:49:23;;;;;;;4.83;2.97;;;;;;;22.69;35.61;99843.56;5082830;28;20443;-71
2021/05/12 10:51:50;;;;;;;5.70;3.33;;;;;;;24.11;34.23;99838.38;5082732;28;20540;-70
2021/05/12 10:54:41;;;;;;;5.80;3.87;;;;;;;23.94;33.86;99839.13;5083884;28;20511;-68
2021/05/12 10:57:08;;;;;;;4.40;3.07;;;;;;;25.10;31.83;99834.59;5081366;28;20880;-65
2021/05/12 10:59:35;;;;;;;4.30;3.63;;;;;;;25.00;31.21;99827.88;5083637;28;20876;-64
2021/05/12 11:02:01;;;;;;;6.87;3.80;;;;;;;25.55;29.89;99828.25;5088943;28;20479;-65
2021/05/12 11:04:28;;;;;;;6.30;3.23;;;;;;;25.89;30.42;99829.06;5082322;28;20482;-67
2021/05/12 11:07:02;;;;;;;5.83;4.10;;;;;;;24.15;32.49;99828.66;5082034;28;20479;-62
2021/05/12 11:09:46;;;;;;;5.80;3.80;;;;;;;23.47;32.83;99837.19;5082231;28;20965;-65
2021/05/12 11:12:15;;;;;;;6.33;3.87;;;;;;;22.30;35.30;99843.84;5081755;28;20482;-65
2021/05/12 11:14:58;;;;;;;4.30;3.90;;;;;;;22.07;36.62;99836.34;5083364;28;20432;-67
2021/05/12 11:17:50;;;;;;;10.37;4.27;;;;;;;22.21;35.83;99836.19;5082056;28;20479;-63
2021/05/12 11:20:22;;;;;;;6.07;4.00;;;;;;;21.27;37.82;99837.06;5081424;28;20483;-64
2021/05/12 11:22:49;;;;;;;4.93;4.00;;;;;;;21.20;37.62;99841.72;5073144;28;20447;-64